createdAt,value
2023-05-15T00:01:25.656Z,14.83
2023-05-15T00:03:52.171Z,15.67
2023-05-15T00:06:18.644Z,13.50
2023-05-15T00:08:44.957Z,16.87
2023-05-15T00:11:11.269Z,16.97
2023-05-15T00:13:38.524Z,16.03
2023-05-15T00:16:08.385Z,17.23
2023-05-15T00:18:35.287Z,17.17
2023-05-15T00:21:01.582Z,20.33
2023-05-15T00:23:27.986Z,20.57
2023-05-15T00:25:54.230Z,24.07
2023-05-15T00:28:20.485Z,22.07
2023-05-15T00:30:46.806Z,24.47
2023-05-15T00:33:13.611Z,27.10
2023-05-15T00:35:39.933Z,28.57
2023-05-15T00:38:06.312Z,28.63
2023-05-15T00:40:33.594Z,33.17
2023-05-15T00:43:00.570Z,32.60
2023-05-15T00:45:27.006Z,28.80
2023-05-15T00:47:54.394Z,33.17
2023-05-15T00:50:21.146Z,34.80
2023-05-15T00:52:47.425Z,34.53
2023-05-15T00:55:13.752Z,35.73
2023-05-15T00:57:41.581Z,36.80
2023-05-15T01:00:10.431Z,34.97
2023-05-15T01:02:37.407Z,34.17
2023-05-15T01:05:04.142Z,34.07
2023-05-15T01:07:33.061Z,39.17
2023-05-15T01:09:59.625Z,36.57
2023-05-15T01:12:26.959Z,40.17
2023-05-15T01:14:53.535Z,35.97
2023-05-15T01:17:19.832Z,43.90
2023-05-15T01:19:46.778Z,38.70
2023-05-15T01:22:26.201Z,38.43
2023-05-15T01:25:11.337Z,41.00
2023-05-15T01:27:46.304Z,43.43
2023-05-15T01:30:18.011Z,46.40
2023-05-15T01:32:51.164Z,43.10
2023-05-15T01:35:23.477Z,44.57
2023-05-15T01:37:55.263Z,44.70
2023-05-15T01:40:24.053Z,42.10
2023-05-15T01:43:00.654Z,40.03
2023-05-15T01:45:28.707Z,39.10
2023-05-15T01:47:55.917Z,41.80
2023-05-15T01:50:22.825Z,46.80
2023-05-15T01:52:50.630Z,45.10
2023-05-15T01:55:17.673Z,41.80
2023-05-15T01:57:45.066Z,44.50
2023-05-15T02:00:11.923Z,46.63
2023-05-15T02:02:38.370Z,45.33
2023-05-15T02:05:05.726Z,46.50
2023-05-15T02:07:32.430Z,45.80
2023-05-15T02:09:59.212Z,44.57
2023-05-15T02:12:26.312Z,44.57
2023-05-15T02:14:52.786Z,50.80
2023-05-15T02:17:20.263Z,44.77
2023-05-15T02:19:46.632Z,49.17
2023-05-15T02:22:12.870Z,52.27
2023-05-15T02:24:39.391Z,48.27
2023-05-15T02:27:14.728Z,43.23
2023-05-15T02:29:59.770Z,46.23
2023-05-15T02:32:31.006Z,46.07
2023-05-15T02:35:07.092Z,43.50
2023-05-15T02:37:35.627Z,43.47
2023-05-15T02:40:06.697Z,39.33
2023-05-15T02:42:33.604Z,44.63
2023-05-15T02:45:00.153Z,43.30
2023-05-15T02:47:26.627Z,46.60
2023-05-15T02:49:53.046Z,41.40
2023-05-15T02:52:19.349Z,42.60
2023-05-15T02:54:45.675Z,42.20
2023-05-15T02:57:11.929Z,44.63
2023-05-15T02:59:38.192Z,48.50
2023-05-15T03:02:05.422Z,43.50
2023-05-15T03:04:31.774Z,44.47
2023-05-15T03:06:58.137Z,45.07
2023-05-15T03:09:25.383Z,45.93
2023-05-15T03:11:51.802Z,41.27
2023-05-15T03:14:18.088Z,44.90
2023-05-15T03:16:44.713Z,47.03
2023-05-15T03:19:11.182Z,43.63
2023-05-15T03:21:37.494Z,48.37
2023-05-15T03:24:03.855Z,41.87
2023-05-15T03:26:30.188Z,44.87
2023-05-15T03:28:58.048Z,43.60
2023-05-15T03:31:24.313Z,44.03
2023-05-15T03:33:51.519Z,43.13
2023-05-15T03:36:17.830Z,43.93
2023-05-15T03:38:44.337Z,44.27
2023-05-15T03:41:10.707Z,40.30
2023-05-15T03:43:37.030Z,45.40
2023-05-15T03:46:03.405Z,43.20
2023-05-15T03:48:29.735Z,48.33
2023-05-15T03:50:56.118Z,41.30
2023-05-15T03:53:22.688Z,46.87
2023-05-15T03:55:48.987Z,44.40
2023-05-15T03:58:15.299Z,47.63
2023-05-15T04:00:41.618Z,45.53
2023-05-15T04:03:08.320Z,47.97
2023-05-15T04:05:34.867Z,46.20
2023-05-15T04:08:01.300Z,48.20
2023-05-15T04:10:27.640Z,50.90
2023-05-15T04:12:54.020Z,53.53
2023-05-15T04:15:24.694Z,54.83
2023-05-15T04:17:52.170Z,55.47
2023-05-15T04:20:19.636Z,59.27
2023-05-15T04:22:45.967Z,57.60
2023-05-15T04:25:13.535Z,60.93
2023-05-15T04:27:40.232Z,59.53
2023-05-15T04:30:07.272Z,60.50
2023-05-15T04:32:37.461Z,58.70
2023-05-15T04:35:10.103Z,53.80
2023-05-15T04:37:36.942Z,58.77
2023-05-15T04:40:03.930Z,53.73
2023-05-15T04:42:30.236Z,51.53
2023-05-15T04:44:56.948Z,57.63
2023-05-15T04:47:23.257Z,53.07
2023-05-15T04:49:50.131Z,51.60
2023-05-15T04:52:16.728Z,53.33
2023-05-15T04:54:43.271Z,49.23
2023-05-15T04:57:09.916Z,50.20
2023-05-15T04:59:36.303Z,50.23
2023-05-15T05:02:02.634Z,52.00
2023-05-15T05:04:29.057Z,50.70
2023-05-15T05:06:55.314Z,53.20
2023-05-15T05:09:21.593Z,49.73
2023-05-15T05:11:48.007Z,48.33
2023-05-15T05:14:15.054Z,46.37
2023-05-15T05:16:41.698Z,46.03
2023-05-15T05:19:08.248Z,48.70
2023-05-15T05:21:34.593Z,48.30
2023-05-15T05:24:00.888Z,43.63
2023-05-15T05:26:27.410Z,44.17
2023-05-15T05:28:53.801Z,41.90
2023-05-15T05:31:20.487Z,47.30
2023-05-15T05:33:47.124Z,46.83
2023-05-15T05:36:13.477Z,48.27
2023-05-15T05:38:39.726Z,50.23
2023-05-15T05:41:06.094Z,46.33
2023-05-15T05:43:32.543Z,58.00
2023-05-15T05:45:58.815Z,45.30
2023-05-15T05:48:26.811Z,46.50
2023-05-15T05:50:53.094Z,48.37
2023-05-15T05:53:19.393Z,48.93
2023-05-15T05:55:46.051Z,44.57
2023-05-15T05:58:18.366Z,44.07
2023-05-15T06:00:51.147Z,43.30
2023-05-15T06:03:17.690Z,43.97
2023-05-15T06:05:44.102Z,45.07
2023-05-15T06:08:10.454Z,44.20
2023-05-15T06:10:36.721Z,53.60
2023-05-15T06:13:03.052Z,43.43
2023-05-15T06:15:29.458Z,44.87
2023-05-15T06:17:55.764Z,41.33
2023-05-15T06:20:23.027Z,39.63
2023-05-15T06:22:49.467Z,41.17
2023-05-15T06:25:15.876Z,46.10
2023-05-15T06:27:42.372Z,42.10
2023-05-15T06:30:09.229Z,47.00
2023-05-15T06:32:35.751Z,47.03
2023-05-15T06:35:02.382Z,46.10
2023-05-15T06:37:28.931Z,46.53
2023-05-15T06:39:56.422Z,48.77
2023-05-15T06:42:22.971Z,59.63
2023-05-15T06:44:52.249Z,50.07
2023-05-15T06:47:18.685Z,49.17
2023-05-15T06:49:45.079Z,48.93
2023-05-15T06:52:11.486Z,53.07
2023-05-15T06:54:38.436Z,58.43
2023-05-15T06:57:04.897Z,48.07
2023-05-15T06:59:35.567Z,49.93
2023-05-15T07:02:02.809Z,47.70
2023-05-15T07:04:30.970Z,49.03
2023-05-15T07:06:57.553Z,46.07
2023-05-15T07:09:24.165Z,46.67
2023-05-15T07:11:50.515Z,58.03
2023-05-15T07:14:16.806Z,55.17
2023-05-15T07:16:43.149Z,50.17
2023-05-15T07:19:09.722Z,46.90
2023-05-15T07:21:36.059Z,51.17
2023-05-15T07:24:02.325Z,47.00
2023-05-15T07:26:34.803Z,48.90
2023-05-15T07:29:03.941Z,48.40
2023-05-15T07:31:31.974Z,45.63
2023-05-15T07:33:58.214Z,43.70
2023-05-15T07:36:25.613Z,42.37
2023-05-15T07:38:51.875Z,41.17
2023-05-15T07:41:18.205Z,40.87
2023-05-15T07:43:44.525Z,42.13
2023-05-15T07:46:11.415Z,38.00
2023-05-15T07:48:37.704Z,39.30
2023-05-15T07:51:04.032Z,39.90
2023-05-15T07:53:31.031Z,48.87
2023-05-15T07:55:57.276Z,41.90
2023-05-15T07:58:23.514Z,39.43
2023-05-15T08:00:49.832Z,37.60
2023-05-15T08:03:17.023Z,41.73
2023-05-15T08:05:43.462Z,36.13
2023-05-15T08:08:09.783Z,37.53
2023-05-15T08:10:36.028Z,36.77
2023-05-15T08:13:02.241Z,38.20
2023-05-15T08:15:29.247Z,37.20
2023-05-15T08:17:55.602Z,37.50
2023-05-15T08:20:21.901Z,39.17
2023-05-15T08:22:48.173Z,37.80
2023-05-15T08:25:14.514Z,39.53
2023-05-15T08:27:40.781Z,36.73
2023-05-15T08:30:07.256Z,36.30
2023-05-15T08:32:33.517Z,35.20
2023-05-15T08:34:59.835Z,37.53
2023-05-15T08:37:26.184Z,42.23
2023-05-15T08:39:52.506Z,36.10
2023-05-15T08:42:18.772Z,34.30
2023-05-15T08:44:45.477Z,32.10
2023-05-15T08:47:11.811Z,33.40
2023-05-15T08:49:43.768Z,30.63
2023-05-15T08:52:10.317Z,29.83
2023-05-15T08:54:36.878Z,29.07
2023-05-15T08:57:03.438Z,29.97
2023-05-15T08:59:29.848Z,28.87
2023-05-15T09:01:56.925Z,29.93
2023-05-15T09:04:23.173Z,28.37
2023-05-15T09:06:49.577Z,30.60
2023-05-15T09:09:16.098Z,34.40
2023-05-15T09:11:46.852Z,32.50
2023-05-15T09:14:13.136Z,26.93
2023-05-15T09:16:39.568Z,30.83
2023-05-15T09:19:06.720Z,31.60
2023-05-15T09:21:33.459Z,27.47
2023-05-15T09:24:19.798Z,25.20
2023-05-15T09:26:47.146Z,23.57
2023-05-15T09:29:18.645Z,25.50
2023-05-15T09:31:48.525Z,28.47
2023-05-15T09:34:15.007Z,28.87
2023-05-15T09:36:47.446Z,30.33
2023-05-15T09:39:13.738Z,29.27
2023-05-15T09:41:41.742Z,29.93
2023-05-15T09:44:19.364Z,27.17
2023-05-15T09:46:48.518Z,29.83
2023-05-15T09:49:15.293Z,25.57
2023-05-15T09:51:43.217Z,26.83
2023-05-15T09:54:14.237Z,20.33
2023-05-15T09:56:41.418Z,19.07
2023-05-15T09:59:12.344Z,21.67
2023-05-15T10:01:38.687Z,19.80
2023-05-15T10:04:06.158Z,24.10
2023-05-15T10:06:36.137Z,22.47
2023-05-15T10:09:03.222Z,24.93
2023-05-15T10:11:35.918Z,26.07
2023-05-15T10:14:09.161Z,22.80
2023-05-15T10:16:36.333Z,21.33
2023-05-15T10:19:12.848Z,26.33
2023-05-15T10:21:40.583Z,26.37
2023-05-15T10:24:07.511Z,25.00
2023-05-15T10:26:38.321Z,24.53
2023-05-15T10:29:14.450Z,25.90
2023-05-15T10:31:41.610Z,25.03
2023-05-15T10:34:08.795Z,23.77
2023-05-15T10:36:35.595Z,23.07
2023-05-15T10:39:02.892Z,23.27
2023-05-15T10:41:30.588Z,22.33
2023-05-15T10:44:00.331Z,24.80
2023-05-15T10:46:27.673Z,23.67
2023-05-15T10:48:54.173Z,26.33
2023-05-15T10:51:27.770Z,25.00
2023-05-15T10:53:54.780Z,23.87
2023-05-15T10:56:21.515Z,19.80
2023-05-15T10:58:48.656Z,22.57
2023-05-15T11:01:35.028Z,20.70
2023-05-15T11:04:13.934Z,18.97
2023-05-15T11:06:41.457Z,20.60
2023-05-15T11:09:33.285Z,22.93
2023-05-15T11:12:00.759Z,19.97
2023-05-15T11:14:27.727Z,18.23
2023-05-15T11:16:54.161Z,20.77
2023-05-15T11:19:24.689Z,19.77
2023-05-15T11:22:02.023Z,19.67
2023-05-15T11:24:32.225Z,20.07
2023-05-15T11:27:02.004Z,22.23
2023-05-15T11:29:28.670Z,21.10
2023-05-15T11:31:55.467Z,19.33
2023-05-15T11:34:34.395Z,13.83
2023-05-15T11:37:00.978Z,14.53
2023-05-15T11:39:27.903Z,14.27
2023-05-15T11:41:54.763Z,14.27
2023-05-15T11:44:21.877Z,12.93
2023-05-15T11:46:48.746Z,12.27
2023-05-15T11:49:15.571Z,12.83
2023-05-15T11:51:43.209Z,14.70
2023-05-15T11:54:10.774Z,11.23
2023-05-15T11:56:41.514Z,17.93
2023-05-15T11:59:09.823Z,11.27
2023-05-15T12:01:42.656Z,11.27
2023-05-15T12:04:16.229Z,12.77
2023-05-15T12:06:44.547Z,11.57
2023-05-15T12:09:15.002Z,12.60
2023-05-15T12:11:41.362Z,12.53
2023-05-15T12:14:10.918Z,15.00
2023-05-15T12:16:37.177Z,14.77
2023-05-15T12:19:04.382Z,14.30
2023-05-15T12:21:30.953Z,16.57
2023-05-15T12:26:27.696Z,15.27
2023-05-15T12:28:54.769Z,17.93
2023-05-15T12:31:21.268Z,19.10
2023-05-15T12:33:47.777Z,18.00
2023-05-15T12:36:14.030Z,19.27
2023-05-15T12:38:40.344Z,15.23
2023-05-15T12:41:10.535Z,22.70
2023-05-15T12:43:37.266Z,18.57
2023-05-15T12:46:03.680Z,16.63
2023-05-15T12:48:31.056Z,14.77
2023-05-15T12:51:04.131Z,16.03
2023-05-15T12:53:31.564Z,16.60
2023-05-15T12:55:57.854Z,13.73
2023-05-15T12:58:24.238Z,16.90
2023-05-15T13:00:51.458Z,15.35
2023-05-15T13:03:19.982Z,16.23
2023-05-15T13:05:46.473Z,18.55
2023-05-15T13:08:17.345Z,17.23
2023-05-15T13:10:44.017Z,19.33
2023-05-15T13:13:10.393Z,14.85
2023-05-15T13:15:41.875Z,14.27
2023-05-15T13:18:12.694Z,13.55
2023-05-15T13:20:40.577Z,15.53
2023-05-15T13:23:07.496Z,16.93
2023-05-15T13:25:33.849Z,13.43
2023-05-15T13:28:01.046Z,15.77
2023-05-15T13:30:30.773Z,15.90
2023-05-15T13:32:57.140Z,16.23
2023-05-15T13:35:23.715Z,14.68
2023-05-15T13:37:50.381Z,14.68
2023-05-15T13:40:16.891Z,17.23
2023-05-15T13:42:43.676Z,15.65
2023-05-15T13:45:11.834Z,14.85
2023-05-15T13:47:40.943Z,13.90
2023-05-15T13:50:08.362Z,15.57
2023-05-15T13:52:34.937Z,13.80
2023-05-15T13:55:01.504Z,15.73
2023-05-15T13:57:27.856Z,16.20
2023-05-15T13:59:54.111Z,13.27
2023-05-15T14:02:23.424Z,14.98
2023-05-15T14:04:49.651Z,12.48
2023-05-15T14:07:15.920Z,12.98
2023-05-15T14:09:42.199Z,14.10
2023-05-15T14:12:09.681Z,12.43
2023-05-15T14:14:35.990Z,12.07
2023-05-15T14:17:02.355Z,10.65
2023-05-15T14:19:28.697Z,10.80
2023-05-15T14:21:55.278Z,15.63
2023-05-15T14:24:21.562Z,18.98
2023-05-15T14:26:48.315Z,22.67
2023-05-15T14:29:14.648Z,17.25
2023-05-15T14:31:42.051Z,18.65
2023-05-15T14:34:08.975Z,17.13
2023-05-15T14:36:35.571Z,17.02
2023-05-15T14:39:01.966Z,15.95
2023-05-15T14:41:28.309Z,16.30
2023-05-15T14:43:54.641Z,15.45
2023-05-15T14:46:21.107Z,16.60
2023-05-15T14:48:47.582Z,15.60
2023-05-15T14:51:13.843Z,22.60
2023-05-15T14:53:40.223Z,17.17
2023-05-15T14:56:06.510Z,15.13
2023-05-15T14:58:32.771Z,14.38
2023-05-15T15:00:59.019Z,15.43
2023-05-15T15:03:27.910Z,14.13
2023-05-15T15:05:55.397Z,13.98
2023-05-15T15:08:21.820Z,12.43
2023-05-15T15:10:48.181Z,15.05
2023-05-15T15:13:14.532Z,13.10
2023-05-15T15:15:40.787Z,14.98
2023-05-15T15:18:07.618Z,15.52
2023-05-15T15:20:34.280Z,13.63
2023-05-15T15:23:00.580Z,16.30
2023-05-15T15:25:27.077Z,17.58
2023-05-15T15:27:53.390Z,15.55
2023-05-15T15:30:19.672Z,16.40
2023-05-15T15:32:46.018Z,16.23
2023-05-15T15:35:12.837Z,16.20
2023-05-15T15:37:39.186Z,17.67
2023-05-15T15:40:07.051Z,16.98
2023-05-15T15:42:36.276Z,20.48
2023-05-15T15:45:02.910Z,20.15
2023-05-15T15:47:30.888Z,19.27
2023-05-15T15:49:57.739Z,19.90
2023-05-15T15:52:24.059Z,20.52
2023-05-15T15:54:50.351Z,20.80
2023-05-15T15:57:16.616Z,20.77
2023-05-15T15:59:42.908Z,20.67
2023-05-15T16:02:09.569Z,20.83
2023-05-15T16:04:36.325Z,20.63
2023-05-15T16:07:03.163Z,22.30
2023-05-15T16:09:29.639Z,22.30
2023-05-15T16:11:56.057Z,21.37
2023-05-15T16:14:22.814Z,22.23
2023-05-15T16:16:49.411Z,21.60
2023-05-15T16:19:15.916Z,22.47
2023-05-15T16:21:42.308Z,25.43
2023-05-15T16:24:08.623Z,24.60
2023-05-15T16:26:36.196Z,27.60
2023-05-15T16:29:02.518Z,31.50
2023-05-15T16:31:28.894Z,26.70
2023-05-15T16:33:55.347Z,30.97
2023-05-15T16:36:21.675Z,27.93
2023-05-15T16:38:48.064Z,34.27
2023-05-15T16:41:14.479Z,30.00
2023-05-15T16:43:40.918Z,31.90
2023-05-15T16:46:07.281Z,32.47
2023-05-15T16:48:33.608Z,31.57
2023-05-15T16:50:59.926Z,32.83
2023-05-15T16:53:26.286Z,33.17
2023-05-15T16:55:52.848Z,37.47
2023-05-15T16:58:20.009Z,36.73
2023-05-15T17:00:46.456Z,36.83
2023-05-15T17:03:13.019Z,39.57
2023-05-15T17:05:40.060Z,38.00
2023-05-15T17:08:06.356Z,36.23
2023-05-15T17:10:32.751Z,35.53
2023-05-15T17:12:59.060Z,37.47
2023-05-15T17:15:25.802Z,34.47
2023-05-15T17:17:52.356Z,52.13
2023-05-15T17:20:18.757Z,43.13
2023-05-15T17:22:45.035Z,37.53
2023-05-15T17:25:11.495Z,31.57
2023-05-15T17:27:41.574Z,34.90
2023-05-15T17:30:11.509Z,32.47
2023-05-15T17:32:38.248Z,34.03
2023-05-15T17:35:04.901Z,34.90
2023-05-15T17:37:31.324Z,34.63
2023-05-15T17:39:57.647Z,35.20
2023-05-15T17:42:25.094Z,35.87
2023-05-15T17:44:51.416Z,35.90
2023-05-15T17:47:17.688Z,36.57
2023-05-15T17:49:44.041Z,33.07
2023-05-15T17:52:10.320Z,32.77
2023-05-15T17:54:36.775Z,29.57
2023-05-15T17:57:03.169Z,24.67
2023-05-15T17:59:30.901Z,24.33
2023-05-15T18:01:57.337Z,23.57
2023-05-15T18:04:23.665Z,26.13
2023-05-15T18:06:50.954Z,22.60
2023-05-15T18:09:17.302Z,26.13
2023-05-15T18:11:43.614Z,28.43
2023-05-15T18:14:09.986Z,28.53
2023-05-15T18:16:36.291Z,33.37
2023-05-15T18:19:02.838Z,35.10
2023-05-15T18:21:29.168Z,36.50
2023-05-15T18:23:55.523Z,39.20
2023-05-15T18:26:22.292Z,39.70
2023-05-15T18:28:49.332Z,42.10
2023-05-15T18:31:15.604Z,38.27
2023-05-15T18:33:43.003Z,41.97
2023-05-15T18:36:09.663Z,40.27
2023-05-15T18:38:36.094Z,41.00
2023-05-15T18:41:02.403Z,43.47
2023-05-15T18:43:28.800Z,40.37
2023-05-15T18:45:55.524Z,40.23
2023-05-15T18:48:21.819Z,37.43
2023-05-15T18:50:48.098Z,35.07
2023-05-15T18:53:14.689Z,37.70
2023-05-15T18:55:40.974Z,34.00
2023-05-15T18:58:07.373Z,33.57
2023-05-15T19:00:43.627Z,35.10
2023-05-15T19:03:10.134Z,36.60
2023-05-15T19:05:36.572Z,29.77
2023-05-15T19:08:04.224Z,27.43
2023-05-15T19:10:30.786Z,26.83
2023-05-15T19:12:57.581Z,23.33
2023-05-15T19:15:24.472Z,25.23
2023-05-15T19:17:50.821Z,19.80
2023-05-15T19:20:17.341Z,18.17
2023-05-15T19:22:43.815Z,19.57
2023-05-15T19:25:10.673Z,18.10
2023-05-15T19:27:37.520Z,16.87
2023-05-15T19:30:04.448Z,15.03
2023-05-15T19:32:30.995Z,14.63
2023-05-15T19:34:57.436Z,13.27
2023-05-15T19:37:23.767Z,17.77
2023-05-15T19:39:50.396Z,52.00
2023-05-15T19:42:17.346Z,13.50
2023-05-15T19:44:43.644Z,15.23
2023-05-15T19:47:10.005Z,16.57
2023-05-15T19:49:36.328Z,12.87
2023-05-15T19:52:02.885Z,16.40
2023-05-15T19:54:29.296Z,12.33
2023-05-15T19:56:58.364Z,12.53
2023-05-15T19:59:24.679Z,12.17
2023-05-15T20:01:51.047Z,12.73
2023-05-15T20:04:17.493Z,11.83
2023-05-15T20:06:43.787Z,12.40
2023-05-15T20:09:10.081Z,11.33
2023-05-15T20:11:36.314Z,12.20
2023-05-15T20:14:02.588Z,14.10
2023-05-15T20:16:28.922Z,10.90
2023-05-15T20:18:55.546Z,8.63
2023-05-15T20:21:22.098Z,8.53
2023-05-15T20:23:49.203Z,7.47
2023-05-15T20:26:15.594Z,13.07
2023-05-15T20:28:44.337Z,7.63
2023-05-15T20:31:11.691Z,10.47
2023-05-15T20:33:38.044Z,7.47
2023-05-15T20:36:05.208Z,7.07
2023-05-15T20:38:33.742Z,9.20
2023-05-15T20:41:00.158Z,8.67
2023-05-15T20:43:26.673Z,9.00
2023-05-15T20:45:53.054Z,9.13
2023-05-15T20:48:19.446Z,7.17
2023-05-15T20:50:45.908Z,7.93
2023-05-15T20:53:12.232Z,9.60
2023-05-15T20:55:38.564Z,8.37
2023-05-15T20:58:04.808Z,7.80
2023-05-15T21:00:31.279Z,7.67
2023-05-15T21:02:57.754Z,8.47
2023-05-15T21:05:24.146Z,6.83
2023-05-15T21:07:50.625Z,10.20
2023-05-15T21:10:16.964Z,8.57
2023-05-15T21:12:43.309Z,9.47
2023-05-15T21:15:09.943Z,8.50
2023-05-15T21:17:36.379Z,7.73
2023-05-15T21:20:04.121Z,5.73
2023-05-15T21:22:30.429Z,7.53
2023-05-15T21:24:57.208Z,11.13
2023-05-15T21:27:23.521Z,7.67
2023-05-15T21:29:49.795Z,9.67
2023-05-15T21:32:16.152Z,6.73
2023-05-15T21:34:42.526Z,7.70
2023-05-15T21:37:08.865Z,5.70
2023-05-15T21:39:35.222Z,6.70
2023-05-15T21:42:01.537Z,15.27
2023-05-15T21:44:27.842Z,10.20
2023-05-15T21:46:54.240Z,6.73
2023-05-15T21:49:20.847Z,5.87
2023-05-15T21:51:47.528Z,6.13
2023-05-15T21:54:13.802Z,8.33
2023-05-15T21:56:41.175Z,6.47
2023-05-15T21:59:07.523Z,6.60
2023-05-15T22:01:34.406Z,9.97
2023-05-15T22:04:00.778Z,6.97
2023-05-15T22:06:27.110Z,9.07
2023-05-15T22:08:53.470Z,9.17
2023-05-15T22:11:19.814Z,9.97
2023-05-15T22:13:46.283Z,13.37
2023-05-15T22:16:12.651Z,9.67
2023-05-15T22:18:39.294Z,7.77
2023-05-15T22:21:06.281Z,10.43
2023-05-15T22:23:32.546Z,13.43
2023-05-15T22:25:58.897Z,10.93
2023-05-15T22:28:25.230Z,11.03
2023-05-15T22:30:51.532Z,13.00
2023-05-15T22:33:17.830Z,11.17
2023-05-15T22:35:44.593Z,14.23
2023-05-15T22:38:11.062Z,15.10
2023-05-15T22:40:37.438Z,11.00
2023-05-15T22:43:03.824Z,12.93
2023-05-15T22:45:30.310Z,13.13
2023-05-15T22:47:56.793Z,12.13
2023-05-15T22:50:23.038Z,14.30
2023-05-15T22:52:49.371Z,16.40
2023-05-15T22:55:15.966Z,11.20
2023-05-15T22:57:43.153Z,10.63
2023-05-15T23:00:09.956Z,12.70
2023-05-15T23:02:37.651Z,10.47
2023-05-15T23:05:04.388Z,11.37
2023-05-15T23:07:30.722Z,10.43
2023-05-15T23:09:56.951Z,9.47
2023-05-15T23:12:23.289Z,10.50
2023-05-15T23:14:49.587Z,11.67
2023-05-15T23:17:15.956Z,12.50
2023-05-15T23:19:42.206Z,10.67
2023-05-15T23:22:08.538Z,9.20
2023-05-15T23:24:34.771Z,10.47
2023-05-15T23:27:01.299Z,9.10
2023-05-15T23:29:27.613Z,10.83
2023-05-15T23:31:56.218Z,12.20
2023-05-15T23:34:22.676Z,12.07
2023-05-15T23:36:49.020Z,8.70
2023-05-15T23:39:16.362Z,9.03
2023-05-15T23:41:42.679Z,10.23
2023-05-15T23:44:09.001Z,11.00
2023-05-15T23:46:37.019Z,11.17
2023-05-15T23:49:03.587Z,9.17
2023-05-15T23:51:29.913Z,10.03
2023-05-15T23:53:56.223Z,14.17
2023-05-15T23:56:23.695Z,9.97
2023-05-15T23:58:49.956Z,9.37
